createdAt,value
2018-09-10T00:00:59.615Z,2.80
2018-09-10T00:01:59.593Z,1.90
2018-09-10T00:02:59.575Z,1.60
2018-09-10T00:03:59.560Z,2.00
2018-09-10T00:04:59.542Z,2.90
2018-09-10T00:05:59.523Z,2.30
2018-09-10T00:06:59.510Z,1.70
2018-09-10T00:07:59.487Z,1.90
2018-09-10T00:08:59.470Z,2.10
2018-09-10T00:09:59.449Z,1.70
2018-09-10T00:10:59.434Z,3.50
2018-09-10T00:11:59.418Z,2.30
2018-09-10T00:12:59.398Z,2.90
2018-09-10T00:13:59.378Z,1.60
2018-09-10T00:14:59.360Z,2.30
2018-09-10T00:15:59.343Z,3.20
2018-09-10T00:16:59.324Z,2.10
2018-09-10T00:17:59.305Z,3.80
2018-09-10T00:18:59.290Z,2.70
2018-09-10T00:19:59.272Z,2.60
2018-09-10T00:20:59.257Z,3.00
2018-09-10T00:21:59.236Z,2.60
2018-09-10T00:22:59.221Z,2.20
2018-09-10T00:23:59.201Z,1.70
2018-09-10T00:24:59.180Z,4.10
2018-09-10T00:25:59.165Z,2.80
2018-09-10T00:26:59.146Z,2.70
2018-09-10T00:27:59.132Z,1.50
2018-09-10T00:28:59.113Z,2.00
2018-09-10T00:29:59.092Z,1.50
2018-09-10T00:30:59.076Z,1.90
2018-09-10T00:31:59.059Z,3.60
2018-09-10T00:32:59.040Z,2.40
2018-09-10T00:33:59.021Z,1.70
2018-09-10T00:34:59.004Z,2.30
2018-09-10T00:35:58.990Z,1.80
2018-09-10T00:36:58.967Z,2.10
2018-09-10T00:37:58.951Z,3.10
2018-09-10T00:38:58.940Z,1.50
2018-09-10T00:39:58.916Z,1.60
2018-09-10T00:40:58.891Z,2.00
2018-09-10T00:41:58.879Z,2.70
2018-09-10T00:42:58.858Z,2.50
2018-09-10T00:43:58.844Z,1.80
2018-09-10T00:44:58.823Z,3.10
2018-09-10T00:45:58.802Z,2.80
2018-09-10T00:46:58.791Z,3.40
2018-09-10T00:47:58.772Z,1.90
2018-09-10T00:48:58.752Z,1.50
2018-09-10T00:49:58.735Z,2.60
2018-09-10T00:50:58.715Z,1.50
2018-09-10T00:51:58.694Z,1.40
2018-09-10T00:52:58.696Z,4.20
2018-09-10T00:53:58.662Z,3.30
2018-09-10T00:54:58.645Z,1.70
2018-09-10T00:55:58.626Z,1.40
2018-09-10T00:56:58.611Z,3.60
2018-09-10T00:57:58.598Z,2.00
2018-09-10T00:58:58.573Z,2.00
2018-09-10T00:59:58.581Z,1.60
2018-09-10T01:00:58.541Z,1.70
2018-09-10T01:01:58.525Z,4.70
2018-09-10T01:02:58.514Z,1.50
2018-09-10T01:03:58.482Z,2.00
2018-09-10T01:04:58.469Z,2.60
2018-09-10T01:05:58.448Z,1.40
2018-09-10T01:06:58.427Z,1.30
2018-09-10T01:07:58.414Z,1.70
2018-09-10T01:10:30.542Z,2.10
2018-09-10T01:11:30.497Z,4.10
2018-09-10T01:13:24.858Z,2.50
2018-09-10T01:14:24.822Z,2.50
2018-09-10T01:15:24.802Z,2.90
2018-09-10T01:16:24.783Z,1.70
2018-09-10T01:17:24.766Z,2.00
2018-09-10T01:18:24.746Z,1.40
2018-09-10T01:19:24.735Z,2.50
2018-09-10T01:20:24.713Z,2.80
2018-09-10T01:21:24.697Z,2.50
2018-09-10T01:22:24.674Z,1.70
2018-09-10T01:23:24.659Z,2.60
2018-09-10T01:24:24.641Z,2.00
2018-09-10T01:25:24.624Z,2.50
2018-09-10T01:26:24.608Z,1.80
2018-09-10T01:27:24.589Z,1.90
2018-09-10T01:28:24.572Z,1.80
2018-09-10T01:29:24.553Z,1.40
2018-09-10T01:30:24.533Z,3.30
2018-09-10T01:31:24.517Z,1.60
2018-09-10T01:32:24.498Z,1.30
2018-09-10T01:33:24.483Z,2.10
2018-09-10T01:34:24.465Z,2.00
2018-09-10T01:35:24.444Z,1.80
2018-09-10T01:36:24.426Z,1.60
2018-09-10T01:37:24.409Z,1.70
2018-09-10T01:38:24.390Z,2.30
2018-09-10T01:39:24.376Z,1.50
2018-09-10T01:40:24.352Z,2.50
2018-09-10T01:41:24.339Z,1.40
2018-09-10T01:42:24.319Z,1.80
2018-09-10T01:43:24.300Z,1.80
2018-09-10T01:44:24.284Z,1.70
2018-09-10T01:45:24.264Z,1.80
2018-09-10T01:46:24.245Z,1.50
2018-09-10T01:47:24.229Z,1.80
2018-09-10T01:48:24.212Z,1.40
2018-09-10T01:49:24.191Z,1.50
2018-09-10T01:50:24.173Z,2.30
2018-09-10T01:51:24.155Z,1.80
2018-09-10T01:52:24.134Z,4.30
2018-09-10T01:53:24.118Z,1.80
2018-09-10T01:54:24.100Z,2.00
2018-09-10T01:55:24.083Z,1.90
2018-09-10T01:56:24.066Z,2.20
2018-09-10T01:57:24.044Z,2.10
2018-09-10T01:58:24.026Z,1.70
2018-09-10T01:59:24.013Z,1.70
2018-09-10T02:00:23.986Z,1.80
2018-09-10T02:01:23.974Z,4.00
2018-09-10T02:02:23.956Z,1.70
2018-09-10T02:03:23.937Z,1.50
2018-09-10T02:04:23.916Z,2.10
2018-09-10T02:05:23.901Z,2.40
2018-09-10T02:06:23.882Z,2.20
2018-09-10T02:07:23.861Z,1.70
2018-09-10T02:08:23.839Z,2.40
2018-09-10T02:09:23.830Z,2.70
2018-09-10T02:10:23.810Z,1.90
2018-09-10T02:11:23.794Z,2.70
2018-09-10T02:12:23.770Z,1.60
2018-09-10T02:13:23.753Z,1.80
2018-09-10T02:14:23.731Z,1.40
2018-09-10T02:15:23.713Z,1.70
2018-09-10T02:16:23.699Z,2.70
2018-09-10T02:17:23.678Z,5.10
2018-09-10T02:18:23.659Z,1.80
2018-09-10T02:19:23.645Z,3.70
2018-09-10T02:20:23.683Z,1.70
2018-09-10T02:21:23.606Z,2.80
2018-09-10T02:22:24.344Z,3.70
2018-09-10T02:23:23.569Z,2.40
2018-09-10T02:24:23.552Z,2.00
2018-09-10T02:25:23.536Z,2.70
2018-09-10T02:26:23.512Z,1.40
2018-09-10T02:27:23.555Z,2.20
2018-09-10T02:28:23.484Z,1.70
2018-09-10T02:29:23.460Z,2.60
2018-09-10T02:30:23.440Z,2.20
2018-09-10T02:31:23.426Z,2.00
2018-09-10T02:32:23.403Z,1.90
2018-09-10T02:33:23.389Z,2.30
2018-09-10T02:34:23.372Z,1.70
2018-09-10T02:35:23.352Z,2.50
2018-09-10T02:36:23.331Z,1.90
2018-09-10T02:37:23.315Z,1.90
2018-09-10T02:38:23.310Z,1.90
2018-09-10T02:39:23.276Z,2.10
2018-09-10T02:40:23.259Z,1.70
2018-09-10T02:41:23.239Z,2.60
2018-09-10T02:42:23.218Z,2.60
2018-09-10T02:43:23.202Z,2.00
2018-09-10T02:44:23.184Z,3.50
2018-09-10T02:45:23.165Z,2.20
2018-09-10T02:46:23.145Z,4.40
2018-09-10T02:47:23.128Z,2.40
2018-09-10T02:48:23.113Z,3.20
2018-09-10T02:49:23.089Z,2.00
2018-09-10T02:50:23.070Z,1.90
2018-09-10T02:51:23.054Z,2.00
2018-09-10T02:52:23.038Z,1.70
2018-09-10T02:53:23.020Z,1.90
2018-09-10T02:54:22.993Z,2.70
2018-09-10T02:55:22.981Z,2.80
2018-09-10T02:56:22.962Z,1.40
2018-09-10T02:57:22.964Z,2.00
2018-09-10T02:58:22.923Z,1.50
2018-09-10T02:59:22.907Z,3.30
2018-09-10T03:00:22.889Z,1.60
2018-09-10T03:01:22.869Z,3.40
2018-09-10T03:02:22.848Z,1.80
2018-09-10T03:03:22.830Z,1.90
2018-09-10T03:04:22.815Z,1.70
2018-09-10T03:05:22.799Z,1.70
2018-09-10T03:06:22.789Z,1.50
2018-09-10T03:07:22.758Z,1.30
2018-09-10T03:08:22.742Z,1.80
2018-09-10T03:09:23.426Z,1.80
2018-09-10T03:10:22.703Z,1.90
2018-09-10T03:11:22.686Z,2.50
2018-09-10T03:12:22.667Z,2.90
2018-09-10T03:13:22.660Z,2.50
2018-09-10T03:14:22.626Z,2.40
2018-09-10T03:15:22.605Z,1.60
2018-09-10T03:16:22.602Z,3.20
2018-09-10T03:17:22.600Z,1.80
2018-09-10T03:18:22.555Z,1.60
2018-09-10T03:19:22.536Z,1.50
2018-09-10T03:20:22.522Z,2.90
2018-09-10T03:21:22.504Z,2.40
2018-09-10T03:22:22.482Z,2.80
2018-09-10T03:23:22.464Z,2.10
2018-09-10T03:24:22.440Z,1.40
2018-09-10T03:25:22.429Z,2.50
2018-09-10T03:26:22.411Z,2.20
2018-09-10T03:27:22.391Z,2.70
2018-09-10T03:28:22.370Z,1.40
2018-09-10T03:29:22.347Z,1.50
2018-09-10T03:30:22.343Z,2.00
2018-09-10T03:31:22.323Z,5.50
2018-09-10T03:32:22.297Z,1.90
2018-09-10T03:33:22.323Z,2.10
2018-09-10T03:34:22.260Z,2.10
2018-09-10T03:35:22.241Z,3.50
2018-09-10T03:36:22.225Z,2.60
2018-09-10T03:37:22.200Z,2.20
2018-09-10T03:38:22.185Z,2.20
2018-09-10T03:39:22.166Z,1.90
2018-09-10T03:40:22.145Z,2.80
2018-09-10T03:41:22.133Z,1.80
2018-09-10T03:42:22.113Z,2.70
2018-09-10T03:43:22.091Z,2.90
2018-09-10T03:44:22.075Z,1.80
2018-09-10T03:45:22.059Z,4.00
2018-09-10T03:46:22.036Z,1.50
2018-09-10T03:47:22.129Z,1.50
2018-09-10T03:50:34.170Z,1.50
2018-09-10T03:50:55.070Z,2.20
2018-09-10T03:51:55.049Z,2.30
2018-09-10T03:52:55.032Z,1.80
2018-09-10T03:53:55.012Z,2.30
2018-09-10T03:54:54.996Z,2.20
2018-09-10T03:55:54.972Z,2.20
2018-09-10T03:56:54.958Z,2.80
2018-09-10T03:57:54.940Z,1.80
2018-09-10T03:58:54.921Z,2.10
2018-09-10T03:59:54.902Z,1.70
2018-09-10T04:00:54.885Z,2.30
2018-09-10T04:01:54.867Z,1.40
2018-09-10T04:02:54.845Z,2.10
2018-09-10T04:03:54.828Z,2.00
2018-09-10T04:04:54.807Z,2.60
2018-09-10T04:05:54.790Z,2.40
2018-09-10T04:06:54.772Z,2.00
2018-09-10T04:07:54.757Z,1.90
2018-09-10T04:08:54.736Z,1.70
2018-09-10T04:09:54.715Z,1.70
2018-09-10T04:10:54.700Z,2.50
2018-09-10T04:11:54.678Z,2.60
2018-09-10T04:12:54.663Z,2.60
2018-09-10T04:13:54.643Z,2.80
2018-09-10T04:14:54.625Z,3.00
2018-09-10T04:15:54.606Z,2.90
2018-09-10T04:16:54.584Z,1.90
2018-09-10T04:17:54.567Z,2.40
2018-09-10T04:18:54.550Z,2.20
2018-09-10T04:19:54.532Z,2.10
2018-09-10T04:20:54.519Z,2.80
2018-09-10T04:21:54.499Z,2.90
2018-09-10T04:22:54.495Z,3.40
2018-09-10T04:23:54.458Z,3.00
2018-09-10T04:24:54.441Z,2.20
2018-09-10T04:25:54.452Z,2.40
2018-09-10T04:26:54.406Z,2.70
2018-09-10T04:27:54.382Z,2.00
2018-09-10T04:28:54.366Z,1.90
2018-09-10T04:29:54.343Z,2.70
2018-09-10T04:30:54.330Z,3.50
2018-09-10T04:31:54.309Z,3.50
2018-09-10T04:32:54.294Z,2.60
2018-09-10T04:33:54.268Z,2.80
2018-09-10T04:34:54.255Z,3.30
2018-09-10T04:35:54.275Z,2.80
2018-09-10T04:36:54.218Z,2.60
2018-09-10T04:37:54.196Z,3.10
2018-09-10T04:38:54.181Z,3.70
2018-09-10T04:39:54.166Z,2.80
2018-09-10T04:40:54.144Z,2.50
2018-09-10T04:41:54.126Z,3.00
2018-09-10T04:42:54.103Z,3.20
2018-09-10T04:43:54.088Z,5.50
2018-09-10T04:44:54.067Z,2.60
2018-09-10T04:45:54.056Z,4.30
2018-09-10T04:46:54.041Z,2.70
2018-09-10T04:47:54.013Z,4.10
2018-09-10T04:48:53.998Z,2.40
2018-09-10T04:49:54.113Z,4.00
2018-09-10T04:50:53.954Z,3.20
2018-09-10T04:51:53.939Z,3.30
2018-09-10T04:52:53.927Z,3.80
2018-09-10T04:53:53.903Z,3.80
2018-09-10T04:54:53.885Z,3.00
2018-09-10T04:55:53.867Z,2.80
2018-09-10T04:56:53.848Z,2.30
2018-09-10T04:57:53.833Z,3.10
2018-09-10T04:58:53.810Z,2.90
2018-09-10T04:59:53.790Z,2.80
2018-09-10T05:00:53.774Z,2.80
2018-09-10T05:01:53.754Z,3.00
2018-09-10T05:02:53.736Z,3.30
2018-09-10T05:03:53.715Z,2.50
2018-09-10T05:04:53.718Z,2.60
2018-09-10T05:05:53.683Z,3.90
2018-09-10T05:06:53.664Z,4.20
2018-09-10T05:07:53.643Z,3.60
2018-09-10T05:08:53.629Z,4.30
2018-09-10T05:09:53.662Z,4.90
2018-09-10T05:10:53.585Z,4.10
2018-09-10T05:11:53.564Z,4.50
2018-09-10T05:12:53.550Z,5.30
2018-09-10T05:13:53.530Z,4.60
2018-09-10T05:14:53.512Z,5.30
2018-09-10T05:15:53.489Z,5.40
2018-09-10T05:16:53.473Z,3.60
2018-09-10T05:17:53.459Z,3.80
2018-09-10T05:18:53.443Z,3.70
2018-09-10T05:19:53.420Z,3.30
2018-09-10T05:20:53.399Z,4.00
2018-09-10T05:21:53.393Z,4.80
2018-09-10T05:22:53.361Z,4.50
2018-09-10T05:23:53.346Z,4.60
2018-09-10T05:24:53.329Z,5.70
2018-09-10T05:25:53.307Z,3.50
2018-09-10T05:26:53.286Z,4.40
2018-09-10T05:27:53.265Z,4.80
2018-09-10T05:28:53.249Z,4.60
2018-09-10T05:29:53.331Z,5.00
2018-09-10T05:30:53.206Z,9.10
2018-09-10T05:31:53.197Z,8.80
2018-09-10T05:32:53.193Z,9.70
2018-09-10T05:33:53.154Z,12.50
2018-09-10T05:34:53.138Z,8.50
2018-09-10T05:35:53.118Z,5.50
2018-09-10T05:36:53.106Z,6.40
2018-09-10T05:37:53.083Z,5.90
2018-09-10T05:38:53.062Z,6.10
2018-09-10T05:39:53.045Z,4.60
2018-09-10T05:40:53.029Z,5.70
2018-09-10T05:41:53.019Z,6.20
2018-09-10T05:42:53.026Z,4.70
2018-09-10T05:43:52.971Z,8.00
2018-09-10T05:44:52.953Z,6.60
2018-09-10T05:45:52.936Z,7.20
2018-09-10T05:46:52.912Z,7.20
2018-09-10T05:47:52.899Z,5.60
2018-09-10T05:48:52.880Z,6.40
2018-09-10T05:49:52.861Z,6.50
2018-09-10T05:50:52.851Z,7.30
2018-09-10T05:51:52.824Z,6.60
2018-09-10T05:52:52.803Z,7.30
2018-09-10T05:53:52.785Z,8.40
2018-09-10T05:54:52.769Z,24.40
2018-09-10T05:55:52.746Z,14.40
2018-09-10T05:56:52.725Z,8.90
2018-09-10T05:57:52.710Z,9.30
2018-09-10T05:58:52.691Z,7.10
2018-09-10T05:59:52.675Z,9.30
2018-09-10T06:00:52.656Z,9.40
2018-09-10T06:01:52.635Z,7.40
2018-09-10T06:02:52.624Z,6.80
2018-09-10T06:03:52.601Z,8.90
2018-09-10T06:04:52.585Z,6.30
2018-09-10T06:05:52.565Z,8.00
2018-09-10T06:06:52.544Z,6.90
2018-09-10T06:07:52.528Z,7.30
2018-09-10T06:08:52.514Z,6.10
2018-09-10T06:09:52.491Z,7.70
2018-09-10T06:10:52.468Z,8.70
2018-09-10T06:11:52.450Z,11.20
2018-09-10T06:12:52.433Z,6.80
2018-09-10T06:13:52.421Z,6.30
2018-09-10T06:14:52.396Z,7.80
2018-09-10T06:15:52.375Z,6.30
2018-09-10T06:16:52.362Z,8.00
2018-09-10T06:17:52.340Z,7.10
2018-09-10T06:18:52.317Z,7.80
2018-09-10T06:19:52.300Z,7.00
2018-09-10T06:20:52.284Z,9.30
2018-09-10T06:21:52.265Z,7.80
2018-09-10T06:22:52.246Z,7.30
2018-09-10T06:23:52.228Z,8.50
2018-09-10T06:24:52.207Z,6.60
2018-09-10T06:25:52.190Z,6.80
2018-09-10T06:26:52.174Z,5.60
2018-09-10T06:27:52.152Z,6.30
2018-09-10T06:28:52.135Z,7.10
2018-09-10T06:29:52.118Z,6.80
2018-09-10T06:30:52.101Z,7.60
2018-09-10T06:31:52.079Z,7.00
2018-09-10T06:32:52.062Z,5.80
2018-09-10T06:33:52.043Z,8.10
2018-09-10T06:34:52.028Z,7.60
2018-09-10T06:35:52.020Z,8.30
2018-09-10T06:36:51.984Z,8.00
2018-09-10T06:37:51.969Z,9.40
2018-09-10T06:38:53.061Z,8.60
2018-09-10T06:39:52.699Z,8.60
2018-09-10T06:40:51.989Z,10.10
2018-09-10T06:41:52.006Z,8.40
2018-09-10T06:42:51.936Z,7.20
2018-09-10T06:43:51.928Z,9.00
2018-09-10T06:44:54.768Z,9.10
2018-09-10T06:45:51.908Z,9.80
2018-09-10T06:46:52.747Z,7.70
2018-09-10T06:47:51.890Z,8.80
2018-09-10T06:48:51.806Z,7.30
2018-09-10T06:49:51.811Z,9.20
2018-09-10T06:50:51.759Z,6.90
2018-09-10T06:51:51.790Z,8.40
2018-09-10T06:52:51.772Z,9.80
2018-09-10T06:53:51.758Z,8.40
2018-09-10T06:54:51.677Z,8.20
2018-09-10T06:55:51.648Z,8.70
2018-09-10T06:56:51.702Z,9.40
2018-09-10T06:57:51.679Z,8.70
2018-09-10T06:58:51.610Z,10.60
2018-09-10T06:59:51.579Z,10.50
2018-09-10T07:00:51.561Z,9.40
2018-09-10T07:01:51.538Z,9.10
2018-09-10T07:02:51.520Z,10.50
2018-09-10T07:03:51.503Z,10.50
2018-09-10T07:04:51.485Z,10.90
2018-09-10T07:05:51.466Z,9.00
2018-09-10T07:06:51.446Z,8.60
2018-09-10T07:07:51.430Z,10.80
2018-09-10T07:08:51.416Z,11.60
2018-09-10T07:09:51.394Z,11.00
2018-09-10T07:10:51.376Z,11.40
2018-09-10T07:11:51.431Z,12.70
2018-09-10T07:12:51.395Z,10.30
2018-09-10T07:13:51.324Z,10.60
2018-09-10T07:14:51.308Z,11.50
2018-09-10T07:15:51.289Z,11.40
2018-09-10T07:16:51.317Z,11.80
2018-09-10T07:17:51.254Z,9.70
2018-09-10T07:18:51.279Z,12.80
2018-09-10T07:19:51.220Z,12.70
2018-09-10T07:20:51.202Z,11.10
2018-09-10T07:21:51.184Z,11.80
2018-09-10T07:22:51.168Z,10.60
2018-09-10T07:23:51.145Z,12.50
2018-09-10T07:24:51.132Z,10.30
2018-09-10T07:25:51.116Z,12.30
2018-09-10T07:26:51.097Z,11.90
2018-09-10T07:27:51.085Z,13.20
2018-09-10T07:28:51.071Z,12.20
2018-09-10T07:29:51.043Z,10.40
2018-09-10T07:30:51.025Z,13.00
2018-09-10T07:31:51.014Z,10.30
2018-09-10T07:32:50.997Z,11.20
2018-09-10T07:33:50.976Z,10.00
2018-09-10T07:34:50.959Z,10.80
2018-09-10T07:35:50.942Z,12.30
2018-09-10T07:36:50.928Z,10.00
2018-09-10T07:37:50.907Z,11.60
2018-09-10T07:38:50.894Z,10.50
2018-09-10T07:39:50.873Z,10.50
2018-09-10T07:40:50.858Z,10.20
2018-09-10T07:41:50.837Z,9.30
2018-09-10T07:42:50.823Z,10.50
2018-09-10T07:43:50.832Z,13.50
2018-09-10T07:44:50.789Z,12.70
2018-09-10T07:45:50.782Z,11.70
2018-09-10T07:46:50.766Z,10.90
2018-09-10T07:47:50.778Z,10.10
2018-09-10T07:48:52.832Z,12.50
2018-09-10T07:49:50.739Z,10.20
2018-09-10T07:50:50.685Z,13.00
2018-09-10T07:51:50.673Z,11.60
2018-09-10T07:52:50.654Z,10.70
2018-09-10T07:53:50.646Z,11.70
2018-09-10T07:54:50.615Z,11.90
2018-09-10T07:55:50.606Z,13.60
2018-09-10T07:56:50.589Z,12.20
2018-09-10T07:57:50.571Z,11.10
2018-09-10T07:58:50.552Z,10.70
2018-09-10T07:59:50.535Z,10.20
2018-09-10T08:00:50.569Z,10.20
2018-09-10T08:01:50.502Z,15.10
2018-09-10T08:02:50.496Z,12.00
2018-09-10T08:03:50.470Z,10.90
2018-09-10T08:04:50.452Z,13.80
2018-09-10T08:05:50.439Z,12.20
2018-09-10T08:06:50.421Z,12.30
2018-09-10T08:07:50.405Z,13.10
2018-09-10T08:08:50.389Z,11.50
2018-09-10T08:09:50.371Z,14.00
2018-09-10T08:10:50.360Z,14.70
2018-09-10T08:11:50.340Z,11.50
2018-09-10T08:12:50.323Z,14.40
2018-09-10T08:13:50.307Z,11.50
2018-09-10T08:14:50.296Z,11.40
2018-09-10T08:15:50.273Z,14.10
2018-09-10T08:16:50.266Z,15.30
2018-09-10T08:17:50.239Z,12.50
2018-09-10T08:18:50.239Z,10.10
2018-09-10T08:19:50.217Z,13.00
2018-09-10T08:20:50.198Z,13.10
2018-09-10T08:21:50.187Z,12.90
2018-09-10T08:22:50.170Z,11.80
2018-09-10T08:23:50.145Z,13.30
2018-09-10T08:24:50.125Z,11.90
2018-09-10T08:25:50.112Z,12.30
2018-09-10T08:26:50.094Z,17.00
2018-09-10T08:27:50.081Z,11.80
2018-09-10T08:28:50.063Z,13.00
2018-09-10T08:29:50.050Z,12.50
2018-09-10T08:30:50.034Z,13.80
2018-09-10T08:31:50.018Z,14.30
2018-09-10T08:32:50.003Z,15.80
2018-09-10T08:33:49.983Z,13.50
2018-09-10T08:34:49.968Z,11.80
2018-09-10T08:35:49.953Z,12.40
2018-09-10T08:36:49.948Z,15.50
2018-09-10T08:37:49.919Z,18.60
2018-09-10T08:38:49.902Z,14.40
2018-09-10T08:39:49.893Z,13.90
2018-09-10T08:40:49.879Z,12.40
2018-09-10T08:41:49.864Z,12.40
2018-09-10T08:42:49.901Z,12.30
2018-09-10T08:43:49.834Z,13.50
2018-09-10T08:44:49.814Z,13.00
2018-09-10T08:45:49.796Z,14.90
2018-09-10T08:46:49.783Z,12.40
2018-09-10T08:47:49.769Z,13.00
2018-09-10T08:48:49.759Z,13.80
2018-09-10T08:49:49.741Z,12.00
2018-09-10T08:50:49.748Z,11.60
2018-09-10T08:51:49.708Z,12.40
2018-09-10T08:52:49.695Z,12.70
2018-09-10T08:53:49.761Z,13.80
2018-09-10T08:54:49.899Z,13.30
2018-09-10T08:55:49.880Z,9.90
2018-09-10T08:56:49.632Z,12.90
2018-09-10T08:57:49.617Z,13.20
2018-09-10T08:58:49.604Z,11.50
2018-09-10T08:59:49.592Z,13.60
2018-09-10T09:00:49.577Z,12.00
2018-09-10T09:01:49.580Z,12.40
2018-09-10T09:02:49.544Z,16.90
2018-09-10T09:03:49.532Z,9.70
2018-09-10T09:04:49.517Z,13.20
2018-09-10T09:05:49.504Z,12.60
2018-09-10T09:06:49.484Z,11.40
2018-09-10T09:07:49.490Z,12.10
2018-09-10T09:08:49.456Z,13.00
2018-09-10T09:09:49.448Z,12.30
2018-09-10T09:10:49.424Z,13.60
2018-09-10T09:11:49.423Z,12.20
2018-09-10T09:12:49.398Z,13.30
2018-09-10T09:13:49.383Z,14.50
2018-09-10T09:14:49.368Z,13.90
2018-09-10T09:15:49.356Z,11.30
2018-09-10T09:16:49.345Z,13.80
2018-09-10T09:17:49.326Z,12.80
2018-09-10T09:18:49.313Z,12.00
2018-09-10T09:19:49.301Z,12.50
2018-09-10T09:20:49.286Z,15.50
2018-09-10T09:21:49.273Z,12.00
2018-09-10T09:22:49.259Z,12.10
2018-09-10T09:23:49.246Z,13.70
2018-09-10T09:24:49.224Z,10.20
2018-09-10T09:25:49.218Z,13.40
2018-09-10T09:26:49.198Z,12.50
2018-09-10T09:27:49.196Z,14.30
2018-09-10T09:28:49.168Z,12.00
2018-09-10T09:29:49.190Z,10.90
2018-09-10T09:30:49.146Z,14.10
2018-09-10T09:31:49.191Z,11.30
2018-09-10T09:32:49.124Z,9.60
2018-09-10T09:33:49.108Z,11.50
2018-09-10T09:34:49.093Z,14.40
2018-09-10T09:35:49.080Z,12.20
2018-09-10T09:36:49.068Z,12.50
2018-09-10T09:37:49.053Z,10.60
2018-09-10T09:38:49.039Z,10.70
2018-09-10T09:39:49.030Z,10.80
2018-09-10T09:40:49.015Z,10.70
2018-09-10T09:41:49.001Z,11.90
2018-09-10T09:42:48.987Z,9.80
2018-09-10T09:43:48.969Z,10.80
2018-09-10T09:44:48.962Z,11.30
2018-09-10T09:45:48.942Z,12.30
2018-09-10T09:46:48.932Z,14.70
2018-09-10T09:47:48.934Z,10.60
2018-09-10T09:48:48.928Z,13.10
2018-09-10T09:49:48.889Z,10.80
2018-09-10T09:50:48.881Z,11.20
2018-09-10T09:51:48.864Z,9.60
2018-09-10T09:52:48.859Z,11.80
2018-09-10T09:53:48.844Z,10.00
2018-09-10T09:54:48.830Z,12.40
2018-09-10T09:55:48.818Z,11.50
2018-09-10T09:56:48.818Z,9.60
2018-09-10T09:57:48.790Z,10.40
2018-09-10T09:58:48.776Z,11.00
2018-09-10T09:59:48.767Z,10.40
2018-09-10T10:00:48.753Z,9.80
2018-09-10T10:01:48.740Z,8.10
2018-09-10T10:02:48.732Z,7.70
2018-09-10T10:03:48.727Z,9.40
2018-09-10T10:04:48.702Z,9.10
2018-09-10T10:05:48.685Z,11.50
2018-09-10T10:06:48.681Z,9.20
2018-09-10T10:07:48.671Z,10.00
2018-09-10T10:08:48.656Z,9.20
2018-09-10T10:09:48.641Z,10.40
2018-09-10T10:10:48.625Z,9.30
2018-09-10T10:11:48.757Z,8.00
2018-09-10T10:12:48.668Z,13.00
2018-09-10T10:13:48.606Z,6.80
2018-09-10T10:14:48.576Z,5.50
2018-09-10T10:15:48.564Z,8.30
2018-09-10T10:16:48.549Z,5.40
2018-09-10T10:17:48.542Z,6.50
2018-09-10T10:18:48.529Z,6.60
2018-09-10T10:19:48.526Z,6.50
2018-09-10T10:20:48.508Z,8.60
2018-09-10T10:21:48.489Z,6.50
2018-09-10T10:22:48.485Z,7.10
2018-09-10T10:23:48.474Z,9.20
2018-09-10T10:24:48.482Z,7.90
2018-09-10T10:25:48.449Z,8.40
2018-09-10T10:26:48.435Z,6.60
2018-09-10T10:27:48.428Z,6.40
2018-09-10T10:28:48.407Z,5.30
2018-09-10T10:29:48.397Z,3.50
2018-09-10T10:30:48.387Z,4.50
2018-09-10T10:31:48.371Z,3.50
2018-09-10T10:32:48.351Z,5.10
2018-09-10T10:33:48.343Z,3.60
2018-09-10T10:34:48.333Z,6.10
2018-09-10T10:35:48.356Z,7.40
2018-09-10T10:36:48.300Z,7.30
2018-09-10T10:37:48.298Z,6.30
2018-09-10T10:38:48.281Z,5.10
2018-09-10T10:39:48.272Z,4.80
2018-09-10T10:40:48.275Z,4.60
2018-09-10T10:41:48.261Z,4.90
2018-09-10T10:42:48.230Z,6.30
2018-09-10T10:43:48.213Z,5.70
2018-09-10T10:44:48.203Z,5.30
2018-09-10T10:45:48.194Z,5.80
2018-09-10T10:46:48.184Z,4.50
2018-09-10T10:47:48.164Z,6.70
2018-09-10T10:48:48.153Z,5.30
2018-09-10T10:49:48.150Z,4.90
2018-09-10T10:50:48.139Z,4.90
2018-09-10T10:51:48.115Z,6.00
2018-09-10T10:52:48.101Z,8.40
2018-09-10T10:53:48.107Z,7.40
2018-09-10T10:54:48.077Z,6.00
2018-09-10T10:55:48.061Z,7.50
2018-09-10T10:56:48.046Z,4.70
2018-09-10T10:57:48.034Z,6.20
2018-09-10T10:58:48.035Z,4.60
2018-09-10T10:59:48.009Z,5.30
2018-09-10T11:00:48.001Z,3.70
2018-09-10T11:01:48.013Z,3.00
2018-09-10T11:02:47.971Z,4.40
2018-09-10T11:03:47.955Z,4.00
2018-09-10T11:04:47.949Z,3.20
2018-09-10T11:05:47.949Z,5.90
2018-09-10T11:06:47.922Z,3.30
2018-09-10T11:07:47.922Z,2.70
2018-09-10T11:08:47.897Z,2.70
2018-09-10T11:09:47.895Z,3.70
2018-09-10T11:10:47.878Z,3.10
2018-09-10T11:11:47.858Z,3.20
2018-09-10T11:12:47.848Z,2.60
2018-09-10T11:13:47.828Z,3.20
2018-09-10T11:14:47.815Z,3.00
2018-09-10T11:15:47.807Z,5.60
2018-09-10T11:16:47.813Z,3.90
2018-09-10T11:17:47.783Z,4.10
2018-09-10T11:18:47.771Z,2.30
2018-09-10T11:19:47.774Z,3.60
2018-09-10T11:20:47.739Z,5.40
2018-09-10T11:21:47.742Z,2.80
2018-09-10T11:22:47.744Z,2.40
2018-09-10T11:23:47.715Z,2.50
2018-09-10T11:24:47.713Z,3.10
2018-09-10T11:25:47.682Z,3.50
2018-09-10T11:26:47.667Z,3.60
2018-09-10T11:27:47.713Z,3.80
2018-09-10T11:28:47.645Z,4.10
2018-09-10T11:29:47.631Z,2.70
2018-09-10T11:30:47.646Z,2.90
2018-09-10T11:31:47.600Z,2.50
2018-09-10T11:32:47.600Z,2.80
2018-09-10T11:33:47.579Z,2.70
2018-09-10T11:34:47.595Z,4.60
2018-09-10T11:35:47.560Z,2.50
2018-09-10T11:36:47.551Z,2.60
2018-09-10T11:37:47.534Z,2.50
2018-09-10T11:38:47.519Z,3.20
2018-09-10T11:39:47.510Z,3.40
2018-09-10T11:40:47.501Z,4.00
2018-09-10T11:41:47.494Z,2.50
2018-09-10T11:42:47.472Z,4.70
2018-09-10T11:43:47.463Z,2.70
2018-09-10T11:44:47.457Z,3.60
2018-09-10T11:45:47.434Z,2.40
2018-09-10T11:46:47.453Z,2.70
2018-09-10T11:47:47.412Z,5.00
2018-09-10T11:48:47.397Z,3.80
2018-09-10T11:49:47.388Z,3.40
2018-09-10T11:50:47.385Z,3.30
2018-09-10T11:51:47.395Z,3.70
2018-09-10T11:52:47.352Z,3.50
2018-09-10T11:53:47.339Z,4.30
2018-09-10T11:54:47.361Z,2.30
2018-09-10T11:55:47.429Z,4.00
2018-09-10T11:56:47.301Z,2.60
2018-09-10T11:57:47.332Z,3.10
2018-09-10T11:58:47.290Z,3.80
2018-09-10T11:59:47.264Z,3.50
2018-09-10T12:00:47.259Z,3.70
2018-09-10T12:01:47.287Z,3.20
2018-09-10T12:02:47.231Z,3.30
2018-09-10T12:03:47.218Z,4.40
2018-09-10T12:04:47.215Z,4.20
2018-09-10T12:05:47.199Z,2.50
2018-09-10T12:06:47.188Z,4.70
2018-09-10T12:07:47.180Z,2.80
2018-09-10T12:08:47.160Z,3.10
2018-09-10T12:09:47.149Z,3.90
2018-09-10T12:10:47.139Z,3.80
2018-09-10T12:11:47.119Z,3.90
2018-09-10T12:12:47.116Z,4.60
2018-09-10T12:13:47.113Z,5.40
2018-09-10T12:14:47.084Z,3.60
2018-09-10T12:15:47.080Z,2.80
2018-09-10T12:16:47.135Z,3.50
2018-09-10T12:17:47.057Z,3.50
2018-09-10T12:18:47.034Z,4.70
2018-09-10T12:19:47.023Z,2.20
2018-09-10T12:20:47.006Z,3.70
2018-09-10T12:21:47.000Z,3.70
2018-09-10T12:22:46.985Z,4.40
2018-09-10T12:23:46.973Z,2.60
2018-09-10T12:24:46.959Z,2.80
2018-09-10T12:25:46.945Z,3.10
2018-09-10T12:26:46.965Z,2.60
2018-09-10T12:27:46.919Z,4.00
2018-09-10T12:28:46.906Z,3.10
2018-09-10T12:29:46.893Z,6.00
2018-09-10T12:30:46.879Z,3.90
2018-09-10T12:31:46.873Z,2.10
2018-09-10T12:32:46.864Z,3.40
2018-09-10T12:33:46.845Z,3.50
2018-09-10T12:34:46.823Z,3.70
2018-09-10T12:35:46.811Z,3.30
2018-09-10T12:36:46.810Z,4.90
2018-09-10T12:37:46.789Z,3.30
2018-09-10T12:38:46.789Z,3.20
2018-09-10T12:39:46.821Z,4.10
2018-09-10T12:40:46.744Z,5.40
2018-09-10T12:41:46.791Z,2.40
2018-09-10T12:42:46.721Z,3.60
2018-09-10T12:43:46.709Z,4.60
2018-09-10T12:44:46.695Z,2.70
2018-09-10T12:45:46.684Z,3.70
2018-09-10T12:46:46.706Z,5.10
2018-09-10T12:47:46.658Z,3.70
2018-09-10T12:48:46.645Z,4.00
2018-09-10T12:49:46.624Z,4.30
2018-09-10T12:50:46.615Z,2.80
2018-09-10T12:51:46.598Z,3.50
2018-09-10T12:52:46.617Z,4.00
2018-09-10T12:53:46.572Z,4.10
2018-09-10T12:54:46.557Z,3.40
2018-09-10T12:55:46.548Z,4.00
2018-09-10T12:56:46.553Z,2.90
2018-09-10T12:57:46.514Z,2.10
2018-09-10T12:58:46.528Z,5.10
2018-09-10T12:59:46.494Z,3.00
2018-09-10T13:00:46.494Z,2.90
2018-09-10T13:01:46.469Z,2.70
2018-09-10T13:02:46.487Z,2.70
2018-09-10T13:03:46.443Z,2.80
2018-09-10T13:04:46.426Z,3.00
2018-09-10T13:05:46.415Z,3.80
2018-09-10T13:06:46.406Z,4.40
2018-09-10T13:07:46.391Z,3.70
2018-09-10T13:08:46.381Z,7.70
2018-09-10T13:09:46.364Z,3.30
2018-09-10T13:10:46.455Z,3.60
2018-09-10T13:11:46.334Z,3.00
2018-09-10T13:12:46.323Z,2.80
2018-09-10T13:13:46.313Z,4.70
2018-09-10T13:14:46.300Z,4.80
2018-09-10T13:15:46.289Z,4.90
2018-09-10T13:16:46.277Z,5.60